Metar z pełnej godziny Komunikat METAR ze strony awiacja.imgw.pl Metar G00 EPBY METAR EPBY 200400Z 26012KT 9999 -SHRA SCT036CB BKN042 05/02 Q1013 =